createdAt,value
2023-03-08T00:01:44.093Z,11.63
2023-03-08T00:04:10.692Z,10.27
2023-03-08T00:06:36.950Z,10.25
2023-03-08T00:09:03.437Z,9.57
2023-03-08T00:11:30.074Z,9.77
2023-03-08T00:13:56.780Z,10.05
2023-03-08T00:16:23.191Z,9.73
2023-03-08T00:18:49.555Z,10.80
2023-03-08T00:21:17.430Z,9.13
2023-03-08T00:23:44.272Z,11.05
2023-03-08T00:26:11.328Z,9.15
2023-03-08T00:28:38.017Z,10.52
2023-03-08T00:31:06.131Z,11.50
2023-03-08T00:33:33.058Z,10.23
2023-03-08T00:36:05.507Z,11.88
2023-03-08T00:38:32.642Z,10.00
2023-03-08T00:40:59.364Z,10.43
2023-03-08T00:43:25.707Z,9.27
2023-03-08T00:45:53.275Z,10.25
2023-03-08T00:48:19.725Z,10.60
2023-03-08T00:50:45.921Z,10.02
2023-03-08T00:53:12.570Z,9.63
2023-03-08T00:55:38.895Z,8.93
2023-03-08T00:58:05.478Z,7.63
2023-03-08T01:00:31.857Z,8.07
2023-03-08T01:02:58.278Z,10.23
2023-03-08T01:05:24.528Z,10.95
2023-03-08T01:07:50.783Z,8.13
2023-03-08T01:10:17.159Z,10.95
2023-03-08T01:12:43.402Z,7.40
2023-03-08T01:15:09.764Z,7.10
2023-03-08T01:17:36.079Z,9.98
2023-03-08T01:20:02.342Z,8.60
2023-03-08T01:22:28.591Z,10.63
2023-03-08T01:24:54.804Z,8.20
2023-03-08T01:27:21.118Z,7.90
2023-03-08T01:29:47.310Z,8.98
2023-03-08T01:32:13.604Z,9.43
2023-03-08T01:34:39.917Z,10.68
2023-03-08T01:37:06.142Z,9.77
2023-03-08T01:39:32.694Z,11.23
2023-03-08T01:41:58.888Z,8.85
2023-03-08T01:44:25.137Z,11.25
2023-03-08T01:46:51.403Z,9.85
2023-03-08T01:49:17.647Z,11.23
2023-03-08T01:51:46.868Z,9.18
2023-03-08T01:54:26.442Z,13.07
2023-03-08T01:56:54.712Z,13.65
2023-03-08T01:59:22.146Z,12.00
2023-03-08T02:01:48.776Z,13.98
2023-03-08T02:04:15.086Z,11.35
2023-03-08T02:06:41.929Z,10.55
2023-03-08T02:09:08.297Z,12.98
2023-03-08T02:11:35.716Z,13.90
2023-03-08T02:14:02.310Z,13.65
2023-03-08T02:16:28.582Z,14.38
2023-03-08T02:18:56.486Z,14.20
2023-03-08T02:21:23.103Z,12.63
2023-03-08T02:23:49.433Z,14.05
2023-03-08T02:26:16.246Z,15.32
2023-03-08T02:28:42.543Z,14.88
2023-03-08T02:31:09.561Z,12.38
2023-03-08T02:33:35.936Z,13.02
2023-03-08T02:36:02.800Z,12.23
2023-03-08T02:38:29.250Z,12.95
2023-03-08T02:40:55.868Z,15.52
2023-03-08T02:43:22.071Z,14.27
2023-03-08T02:45:48.359Z,12.30
2023-03-08T02:48:15.123Z,14.43
2023-03-08T02:50:41.402Z,15.00
2023-03-08T02:53:08.106Z,11.68
2023-03-08T02:55:37.286Z,13.25
2023-03-08T02:58:04.183Z,13.00
2023-03-08T03:00:30.685Z,14.70
2023-03-08T03:02:56.949Z,10.88
2023-03-08T03:05:23.188Z,11.15
2023-03-08T03:07:49.485Z,12.38
2023-03-08T03:10:15.806Z,12.90
2023-03-08T03:12:43.835Z,13.07
2023-03-08T03:15:10.268Z,14.75
2023-03-08T03:17:37.044Z,12.02
2023-03-08T03:20:06.474Z,11.68
2023-03-08T03:22:32.738Z,11.05
2023-03-08T03:24:58.998Z,12.82
2023-03-08T03:27:25.274Z,10.45
2023-03-08T03:29:51.604Z,11.85
2023-03-08T03:32:18.270Z,11.90
2023-03-08T03:34:44.651Z,12.20
2023-03-08T03:37:10.878Z,13.30
2023-03-08T03:39:38.950Z,11.98
2023-03-08T03:42:06.128Z,11.82
2023-03-08T03:44:32.646Z,11.80
2023-03-08T03:46:59.044Z,12.45
2023-03-08T03:49:25.548Z,12.00
2023-03-08T03:51:51.790Z,11.48
2023-03-08T03:54:18.010Z,12.27
2023-03-08T03:56:44.224Z,12.07
2023-03-08T03:59:10.438Z,11.80
2023-03-08T04:01:39.396Z,13.45
2023-03-08T04:04:05.811Z,12.15
2023-03-08T04:06:32.858Z,12.90
2023-03-08T04:09:00.135Z,15.85
2023-03-08T04:11:28.218Z,14.52
2023-03-08T04:13:54.783Z,16.40
2023-03-08T04:16:22.729Z,18.73
2023-03-08T04:18:52.172Z,14.23
2023-03-08T04:21:18.426Z,14.68
2023-03-08T04:23:44.672Z,12.80
2023-03-08T04:26:11.057Z,13.02
2023-03-08T04:28:37.411Z,13.95
2023-03-08T04:31:17.318Z,12.90
2023-03-08T04:33:44.001Z,14.27
2023-03-08T04:36:10.366Z,14.85
2023-03-08T04:38:36.686Z,13.07
2023-03-08T04:41:10.191Z,12.48
2023-03-08T04:43:36.429Z,14.60
2023-03-08T04:46:03.005Z,14.52
2023-03-08T04:48:29.225Z,13.52
2023-03-08T04:50:56.050Z,11.75
2023-03-08T04:53:22.715Z,16.35
2023-03-08T04:55:49.026Z,14.95
2023-03-08T04:58:15.388Z,14.73
2023-03-08T05:00:41.809Z,17.17
2023-03-08T05:03:08.686Z,18.95
2023-03-08T05:05:34.976Z,16.35
2023-03-08T05:08:04.244Z,18.17
2023-03-08T05:10:33.422Z,21.95
2023-03-08T05:12:59.675Z,19.10
2023-03-08T05:15:26.026Z,16.63
2023-03-08T05:17:52.284Z,14.48
2023-03-08T05:20:18.651Z,16.60
2023-03-08T05:22:57.985Z,14.25
2023-03-08T05:25:25.023Z,12.77
2023-03-08T05:27:51.268Z,13.38
2023-03-08T05:30:17.576Z,12.63
2023-03-08T05:32:43.945Z,12.88
2023-03-08T05:35:10.218Z,12.95
2023-03-08T05:37:36.435Z,14.60
2023-03-08T05:40:02.964Z,18.23
2023-03-08T05:42:30.812Z,19.55
2023-03-08T05:44:57.022Z,18.73
2023-03-08T05:47:23.259Z,20.98
2023-03-08T05:49:49.529Z,20.17
2023-03-08T05:52:15.847Z,20.40
2023-03-08T05:54:42.173Z,24.88
2023-03-08T05:57:08.380Z,25.45
2023-03-08T05:59:34.679Z,24.60
2023-03-08T06:02:00.968Z,24.08
2023-03-08T06:04:27.340Z,21.02
2023-03-08T06:06:53.605Z,19.23
2023-03-08T06:09:19.907Z,21.90
2023-03-08T06:11:46.133Z,22.52
2023-03-08T06:14:13.326Z,20.83
2023-03-08T06:16:39.800Z,19.67
2023-03-08T06:19:06.035Z,22.40
2023-03-08T06:21:32.330Z,21.08
2023-03-08T06:23:59.181Z,20.08
2023-03-08T06:26:25.429Z,22.08
2023-03-08T06:28:51.726Z,23.35
2023-03-08T06:31:18.768Z,19.13
2023-03-08T06:33:45.216Z,18.10
2023-03-08T06:36:13.062Z,20.70
2023-03-08T06:38:40.193Z,17.75
2023-03-08T06:41:07.460Z,18.98
2023-03-08T06:43:34.042Z,17.63
2023-03-08T06:46:03.273Z,18.67
2023-03-08T06:48:29.513Z,18.95
2023-03-08T06:50:55.715Z,19.55
2023-03-08T06:53:22.027Z,40.13
2023-03-08T06:55:48.367Z,19.48
2023-03-08T06:58:14.679Z,18.80
2023-03-08T07:00:40.915Z,15.73
2023-03-08T07:03:07.454Z,14.98
2023-03-08T07:05:33.671Z,17.08
2023-03-08T07:07:59.991Z,16.85
2023-03-08T07:10:26.297Z,15.48
2023-03-08T07:12:52.604Z,18.02
2023-03-08T07:15:20.429Z,16.08
2023-03-08T07:17:47.559Z,18.17
2023-03-08T07:20:15.005Z,14.73
2023-03-08T07:22:43.907Z,15.50
2023-03-08T07:25:11.249Z,16.20
2023-03-08T07:27:37.619Z,15.52
2023-03-08T07:30:04.226Z,15.02
2023-03-08T07:32:30.575Z,16.25
2023-03-08T07:34:57.381Z,15.05
2023-03-08T07:37:24.111Z,13.60
2023-03-08T07:39:51.317Z,13.70
2023-03-08T07:42:17.883Z,14.15
2023-03-08T07:44:44.271Z,16.00
2023-03-08T07:47:10.470Z,14.77
2023-03-08T07:49:37.055Z,17.48
2023-03-08T07:52:03.559Z,16.60
2023-03-08T07:54:29.857Z,17.27
2023-03-08T07:56:56.094Z,17.48
2023-03-08T07:59:23.284Z,20.38
2023-03-08T08:01:49.601Z,18.05
2023-03-08T08:04:16.237Z,18.52
2023-03-08T08:06:42.495Z,18.35
2023-03-08T08:09:09.518Z,19.73
2023-03-08T08:11:35.902Z,16.80
2023-03-08T08:14:02.234Z,18.45
2023-03-08T08:16:28.560Z,19.70
2023-03-08T08:18:54.820Z,16.00
2023-03-08T08:21:21.544Z,20.20
2023-03-08T08:23:48.019Z,18.70
2023-03-08T08:26:17.504Z,19.38
2023-03-08T08:28:44.200Z,16.77
2023-03-08T08:31:11.681Z,18.77
2023-03-08T08:33:38.027Z,15.73
2023-03-08T08:36:05.796Z,15.65
2023-03-08T08:38:32.212Z,17.92
2023-03-08T08:40:59.828Z,19.55
2023-03-08T08:43:26.111Z,18.13
2023-03-08T08:45:54.183Z,16.98
2023-03-08T08:48:20.565Z,17.15
2023-03-08T08:50:46.810Z,17.50
2023-03-08T08:53:13.146Z,21.95
2023-03-08T08:55:41.702Z,18.27
2023-03-08T08:58:08.577Z,18.52
2023-03-08T09:00:34.828Z,17.90
2023-03-08T09:03:02.008Z,18.70
2023-03-08T09:05:28.990Z,16.95
2023-03-08T09:07:59.129Z,18.73
2023-03-08T09:10:25.820Z,20.13
2023-03-08T09:12:52.140Z,18.63
2023-03-08T09:15:18.470Z,21.13
2023-03-08T09:17:44.683Z,19.58
2023-03-08T09:20:11.307Z,21.02
2023-03-08T09:22:38.005Z,21.80
2023-03-08T09:25:05.185Z,20.75
2023-03-08T09:27:31.430Z,19.40
2023-03-08T09:29:58.130Z,18.83
2023-03-08T09:32:24.818Z,18.95
2023-03-08T09:34:53.995Z,20.52
2023-03-08T09:37:20.602Z,20.15
2023-03-08T09:39:50.267Z,20.15
2023-03-08T09:42:20.477Z,21.98
2023-03-08T09:44:51.864Z,20.48
2023-03-08T09:49:46.224Z,21.55
2023-03-08T09:52:31.025Z,21.42
2023-03-08T09:55:00.965Z,21.58
2023-03-08T09:57:30.140Z,21.70
2023-03-08T09:59:57.807Z,20.23
2023-03-08T10:02:30.236Z,21.50
2023-03-08T10:05:15.037Z,21.45
2023-03-08T10:07:46.922Z,18.75
2023-03-08T10:10:23.599Z,19.50
2023-03-08T10:13:08.968Z,18.63
2023-03-08T10:15:40.711Z,20.30
2023-03-08T10:18:13.249Z,19.27
2023-03-08T10:20:40.621Z,20.55
2023-03-08T10:23:12.689Z,21.45
2023-03-08T10:25:39.086Z,20.50
2023-03-08T10:28:11.508Z,19.45
2023-03-08T10:30:40.692Z,23.27
2023-03-08T10:33:10.013Z,23.27
2023-03-08T10:35:39.462Z,20.92
2023-03-08T10:38:17.663Z,21.13
2023-03-08T10:40:45.035Z,24.83
2023-03-08T10:43:32.220Z,21.20
2023-03-08T10:46:07.046Z,20.75
2023-03-08T10:48:33.456Z,21.85
2023-03-08T10:51:00.881Z,22.08
2023-03-08T10:53:30.769Z,21.63
2023-03-08T10:55:58.782Z,22.88
2023-03-08T10:58:28.226Z,20.17
2023-03-08T11:00:55.858Z,22.30
2023-03-08T11:03:23.525Z,22.20
2023-03-08T11:05:54.758Z,21.13
2023-03-08T11:08:22.877Z,22.55
2023-03-08T11:11:00.030Z,20.63
2023-03-08T11:13:29.118Z,20.90
2023-03-08T11:16:14.449Z,22.00
2023-03-08T11:18:44.466Z,21.33
2023-03-08T11:21:33.498Z,23.35
2023-03-08T11:24:06.830Z,18.42
2023-03-08T11:26:44.825Z,19.85
2023-03-08T11:29:18.674Z,20.30
2023-03-08T11:31:49.753Z,22.35
2023-03-08T11:34:26.002Z,19.15
2023-03-08T11:36:58.049Z,16.60
2023-03-08T11:39:26.096Z,19.20
2023-03-08T11:41:57.879Z,20.08
2023-03-08T11:44:32.119Z,17.58
2023-03-08T11:47:19.992Z,19.50
2023-03-08T11:50:05.907Z,19.50
2023-03-08T11:52:44.277Z,17.27
2023-03-08T11:55:10.589Z,20.73
2023-03-08T11:57:40.548Z,18.50
2023-03-08T12:00:14.276Z,20.30
2023-03-08T12:02:45.158Z,17.27
2023-03-08T12:05:25.425Z,23.15
2023-03-08T12:07:55.966Z,20.15
2023-03-08T12:10:41.043Z,16.83
2023-03-08T12:13:25.270Z,18.67
2023-03-08T12:16:01.882Z,20.25
2023-03-08T12:18:34.121Z,17.48
2023-03-08T12:21:06.863Z,17.08
2023-03-08T12:23:33.205Z,17.73
2023-03-08T12:26:10.860Z,16.50
2023-03-08T12:28:40.823Z,17.52
2023-03-08T12:31:27.349Z,17.35
2023-03-08T12:33:55.386Z,17.48
2023-03-08T12:36:22.561Z,16.75
2023-03-08T12:38:55.524Z,17.10
2023-03-08T12:41:27.085Z,17.17
2023-03-08T12:44:13.665Z,17.67
2023-03-08T12:47:00.261Z,15.20
2023-03-08T12:49:36.218Z,18.05
2023-03-08T12:52:07.417Z,17.23
2023-03-08T12:54:35.173Z,16.55
2023-03-08T12:57:14.435Z,17.20
2023-03-08T12:59:42.219Z,18.25
2023-03-08T13:02:24.196Z,15.27
2023-03-08T13:05:01.831Z,15.95
2023-03-08T13:07:31.262Z,16.92
2023-03-08T13:10:01.682Z,14.52
2023-03-08T13:12:33.020Z,16.38
2023-03-08T13:15:08.616Z,16.48
2023-03-08T13:17:38.358Z,15.93
2023-03-08T13:20:19.544Z,15.75
2023-03-08T13:22:53.060Z,15.85
2023-03-08T13:25:50.543Z,17.85
2023-03-08T13:28:37.734Z,18.38
2023-03-08T13:31:26.782Z,18.95
2023-03-08T13:33:55.713Z,20.02
2023-03-08T13:36:22.259Z,17.13
2023-03-08T13:39:19.104Z,15.68
2023-03-08T13:41:47.001Z,15.75
2023-03-08T13:44:15.551Z,16.63
2023-03-08T13:46:43.457Z,18.02
2023-03-08T13:49:21.650Z,17.30
2023-03-08T13:51:50.611Z,16.20
2023-03-08T13:54:20.132Z,17.60
2023-03-08T13:56:52.033Z,15.82
2023-03-08T13:59:20.324Z,16.38
2023-03-08T14:01:50.510Z,14.85
2023-03-08T14:04:19.179Z,16.73
2023-03-08T14:07:04.278Z,20.20
2023-03-08T14:09:30.733Z,17.77
2023-03-08T14:12:02.062Z,20.15
2023-03-08T14:14:30.701Z,16.67
2023-03-08T14:16:57.374Z,18.70
2023-03-08T14:19:25.308Z,18.08
2023-03-08T14:21:53.105Z,16.30
2023-03-08T14:24:21.330Z,17.00
2023-03-08T14:27:13.818Z,18.15
2023-03-08T14:29:42.258Z,16.67
2023-03-08T14:32:11.674Z,16.75
2023-03-08T14:34:39.475Z,16.83
2023-03-08T14:37:07.734Z,16.80
2023-03-08T14:39:34.814Z,16.95
2023-03-08T14:42:15.088Z,17.88
2023-03-08T14:44:41.438Z,17.40
2023-03-08T14:47:22.944Z,15.98
2023-03-08T14:52:20.377Z,15.13
2023-03-08T14:54:46.598Z,15.07
2023-03-08T14:57:21.191Z,18.25
2023-03-08T14:59:48.061Z,17.20
2023-03-08T15:02:15.705Z,19.63
2023-03-08T15:04:42.250Z,16.05
2023-03-08T15:07:14.602Z,15.35
2023-03-08T15:09:40.867Z,15.98
2023-03-08T15:12:09.246Z,16.13
2023-03-08T15:14:35.471Z,16.48
2023-03-08T15:17:01.722Z,15.43
2023-03-08T15:19:28.049Z,16.95
2023-03-08T15:21:54.316Z,19.95
2023-03-08T15:24:20.617Z,16.40
2023-03-08T15:26:46.844Z,14.60
2023-03-08T15:29:25.152Z,14.27
2023-03-08T15:31:51.357Z,16.13
2023-03-08T15:34:17.600Z,13.95
2023-03-08T15:36:43.864Z,16.92
2023-03-08T15:39:12.005Z,15.73
2023-03-08T15:41:38.202Z,13.70
2023-03-08T15:44:04.454Z,13.85
2023-03-08T15:46:30.803Z,15.43
2023-03-08T15:48:57.080Z,14.35
2023-03-08T15:51:25.445Z,15.75
2023-03-08T15:53:51.804Z,14.13
2023-03-08T15:56:18.076Z,15.90
2023-03-08T15:58:44.378Z,14.90
2023-03-08T16:01:11.825Z,12.13
2023-03-08T16:03:38.175Z,14.32
2023-03-08T16:06:08.754Z,13.77
2023-03-08T16:08:36.544Z,15.60
2023-03-08T16:11:06.299Z,16.13
2023-03-08T16:13:32.548Z,15.10
2023-03-08T16:15:59.679Z,15.02
2023-03-08T16:18:26.078Z,13.18
2023-03-08T16:20:52.280Z,14.88
2023-03-08T16:23:18.523Z,17.20
2023-03-08T16:25:46.278Z,13.65
2023-03-08T16:28:12.662Z,15.60
2023-03-08T16:30:40.801Z,14.20
2023-03-08T16:33:07.017Z,14.63
2023-03-08T16:35:33.261Z,14.30
2023-03-08T16:37:59.491Z,13.38
2023-03-08T16:40:30.929Z,14.23
2023-03-08T16:45:23.388Z,14.80
2023-03-08T16:47:49.599Z,17.58
2023-03-08T16:50:16.043Z,20.55
2023-03-08T16:52:42.314Z,16.92
2023-03-08T16:55:08.747Z,20.23
2023-03-08T16:57:36.926Z,17.42
2023-03-08T17:00:06.442Z,19.80
2023-03-08T17:02:32.745Z,16.88
2023-03-08T17:04:59.011Z,16.60
2023-03-08T17:07:25.229Z,20.15
2023-03-08T17:09:51.960Z,18.05
2023-03-08T17:12:19.356Z,19.73
2023-03-08T17:14:45.613Z,19.80
2023-03-08T17:17:12.930Z,15.45
2023-03-08T17:19:41.059Z,18.20
2023-03-08T17:22:07.914Z,17.20
2023-03-08T17:24:34.241Z,16.35
2023-03-08T17:27:00.510Z,17.48
2023-03-08T17:29:26.788Z,15.52
2023-03-08T17:31:52.982Z,16.52
2023-03-08T17:34:23.040Z,17.63
2023-03-08T17:36:49.838Z,16.23
2023-03-08T17:39:16.109Z,17.55
2023-03-08T17:41:42.898Z,17.90
2023-03-08T17:44:09.131Z,20.02
2023-03-08T17:46:35.426Z,19.42
2023-03-08T17:49:01.792Z,21.60
2023-03-08T17:51:29.205Z,20.13
2023-03-08T17:53:58.015Z,21.92
2023-03-08T17:56:29.427Z,17.77
2023-03-08T17:58:56.474Z,19.27
2023-03-08T18:01:24.140Z,20.50
2023-03-08T18:03:50.889Z,19.45
2023-03-08T18:06:28.368Z,19.77
2023-03-08T18:08:55.386Z,20.83
2023-03-08T18:11:21.965Z,22.13
2023-03-08T18:13:48.754Z,20.25
2023-03-08T18:16:15.247Z,23.50
2023-03-08T18:18:41.536Z,21.92
2023-03-08T18:21:13.885Z,22.45
2023-03-08T18:23:41.776Z,20.45
2023-03-08T18:26:10.066Z,20.60
2023-03-08T18:28:36.414Z,21.52
2023-03-08T18:31:10.153Z,20.30
2023-03-08T18:33:36.940Z,21.63
2023-03-08T18:36:03.848Z,22.23
2023-03-08T18:38:30.051Z,19.73
2023-03-08T18:40:56.334Z,22.77
2023-03-08T18:43:22.649Z,22.33
2023-03-08T18:45:49.733Z,24.10
2023-03-08T18:48:15.962Z,22.23
2023-03-08T18:50:44.305Z,19.35
2023-03-08T18:53:12.673Z,21.70
2023-03-08T18:55:39.436Z,22.48
2023-03-08T18:58:05.708Z,23.08
2023-03-08T19:00:32.015Z,24.13
2023-03-08T19:02:58.346Z,22.52
2023-03-08T19:05:24.554Z,23.13
2023-03-08T19:07:52.069Z,22.70
2023-03-08T19:10:18.395Z,23.88
2023-03-08T19:12:44.659Z,23.25
2023-03-08T19:15:11.133Z,20.95
2023-03-08T19:17:37.389Z,20.05
2023-03-08T19:20:05.122Z,19.85
2023-03-08T19:22:31.380Z,22.02
2023-03-08T19:24:57.665Z,20.33
2023-03-08T19:27:23.864Z,22.45
2023-03-08T19:29:50.136Z,21.73
2023-03-08T19:32:17.570Z,20.90
2023-03-08T19:34:44.708Z,23.05
2023-03-08T19:37:13.139Z,21.92
2023-03-08T19:39:39.971Z,21.80
2023-03-08T19:42:07.754Z,22.83
2023-03-08T19:44:34.324Z,26.15
2023-03-08T19:47:00.933Z,22.88
2023-03-08T19:49:31.786Z,22.75
2023-03-08T19:51:59.413Z,21.90
2023-03-08T19:54:26.990Z,24.80
2023-03-08T19:56:53.566Z,23.42
2023-03-08T19:59:20.111Z,25.20
2023-03-08T20:01:48.470Z,27.17
2023-03-08T20:04:14.719Z,24.63
2023-03-08T20:06:46.309Z,25.80
2023-03-08T20:09:14.218Z,27.70
2023-03-08T20:11:40.982Z,30.10
2023-03-08T20:14:08.480Z,25.33
2023-03-08T20:16:34.746Z,27.67
2023-03-08T20:19:01.056Z,27.25
2023-03-08T20:21:29.565Z,27.17
2023-03-08T20:23:57.440Z,30.45
2023-03-08T20:26:24.575Z,30.75
2023-03-08T20:28:51.056Z,31.77
2023-03-08T20:31:17.555Z,33.40
2023-03-08T20:33:44.382Z,29.90
2023-03-08T20:36:10.822Z,29.10
2023-03-08T20:38:37.078Z,29.35
2023-03-08T20:41:04.723Z,31.38
2023-03-08T20:43:31.609Z,32.67
2023-03-08T20:45:57.931Z,31.92
2023-03-08T20:48:24.294Z,29.00
2023-03-08T20:50:50.526Z,27.48
2023-03-08T20:53:16.725Z,29.67
2023-03-08T20:55:42.926Z,26.25
2023-03-08T20:58:09.201Z,28.40
2023-03-08T21:00:35.466Z,26.73
2023-03-08T21:03:01.685Z,26.45
2023-03-08T21:05:27.933Z,29.48
2023-03-08T21:07:54.137Z,31.52
2023-03-08T21:10:20.376Z,31.77
2023-03-08T21:12:46.561Z,29.52
2023-03-08T21:15:12.783Z,30.42
2023-03-08T21:17:39.817Z,31.85
2023-03-08T21:20:06.712Z,30.58
2023-03-08T21:22:33.001Z,33.17
2023-03-08T21:24:59.322Z,30.90
2023-03-08T21:27:25.817Z,28.52
2023-03-08T21:29:54.074Z,28.50
2023-03-08T21:32:20.428Z,29.63
2023-03-08T21:34:46.686Z,31.33
2023-03-08T21:37:12.902Z,33.38
2023-03-08T21:39:39.276Z,32.00
2023-03-08T21:42:05.554Z,31.67
2023-03-08T21:44:32.225Z,32.22
2023-03-08T21:46:58.807Z,31.92
2023-03-08T21:49:26.201Z,29.02
2023-03-08T21:51:53.194Z,29.65
2023-03-08T21:54:20.248Z,32.13
2023-03-08T21:56:47.102Z,33.10
2023-03-08T21:59:13.351Z,31.33
2023-03-08T22:01:39.941Z,32.38
2023-03-08T22:04:06.333Z,30.48
2023-03-08T22:06:32.581Z,30.77
2023-03-08T22:08:58.891Z,29.30
2023-03-08T22:11:25.734Z,30.75
2023-03-08T22:13:53.565Z,28.83
2023-03-08T22:16:20.498Z,30.58
2023-03-08T22:18:47.096Z,28.83
2023-03-08T22:21:13.573Z,27.55
2023-03-08T22:23:39.772Z,27.52
2023-03-08T22:26:06.608Z,28.67
2023-03-08T22:28:32.862Z,26.00
2023-03-08T22:30:59.062Z,26.98
2023-03-08T22:33:25.407Z,28.40
2023-03-08T22:35:51.766Z,28.58
2023-03-08T22:38:19.240Z,26.90
2023-03-08T22:40:45.594Z,27.13
2023-03-08T22:43:11.829Z,24.00
2023-03-08T22:45:38.238Z,28.20
2023-03-08T22:48:06.718Z,26.45
2023-03-08T22:50:33.010Z,25.55
2023-03-08T22:52:59.302Z,27.83
2023-03-08T22:55:25.756Z,26.02
2023-03-08T22:57:52.018Z,24.75
2023-03-08T23:00:18.316Z,26.35
2023-03-08T23:02:45.363Z,26.10
2023-03-08T23:05:12.401Z,24.88
2023-03-08T23:07:38.716Z,26.17
2023-03-08T23:10:05.373Z,23.05
2023-03-08T23:12:31.594Z,27.52
2023-03-08T23:14:57.909Z,27.17
2023-03-08T23:17:24.157Z,29.02
2023-03-08T23:19:50.615Z,29.77
2023-03-08T23:22:16.912Z,29.80
2023-03-08T23:24:43.295Z,31.05
2023-03-08T23:27:09.518Z,31.98
2023-03-08T23:29:35.816Z,27.88
2023-03-08T23:32:02.191Z,26.17
2023-03-08T23:34:28.412Z,27.20
2023-03-08T23:36:54.626Z,27.55
2023-03-08T23:39:20.896Z,27.27
2023-03-08T23:41:47.355Z,27.52
2023-03-08T23:44:13.637Z,28.83
2023-03-08T23:46:40.049Z,25.98
2023-03-08T23:49:06.329Z,29.58
2023-03-08T23:51:33.013Z,28.42
2023-03-08T23:54:00.419Z,29.15
2023-03-08T23:56:29.857Z,27.58
2023-03-08T23:58:57.184Z,25.80
